sensor_id;sensor_type;location;lat;lon;timestamp;pressure;altitude;pressure_sealevel;temperature;humidity
7200;BME280;3641;49.082;8.200;2022-09-04T00:00:07;100273.88;;;16.40;85.16
7200;BME280;3641;49.082;8.200;2022-09-04T00:02:46;100281.56;;;16.57;84.73
7200;BME280;3641;49.082;8.200;2022-09-04T00:05:19;100279.34;;;16.65;83.57
7200;BME280;3641;49.082;8.200;2022-09-04T00:07:56;100280.34;;;16.71;83.23
7200;BME280;3641;49.082;8.200;2022-09-04T00:10:29;100285.88;;;16.71;82.85
7200;BME280;3641;49.082;8.200;2022-09-04T00:13:03;100286.53;;;16.66;83.11
7200;BME280;3641;49.082;8.200;2022-09-04T00:15:35;100284.47;;;16.62;82.76
7200;BME280;3641;49.082;8.200;2022-09-04T00:18:05;100288.25;;;16.67;82.57
7200;BME280;3641;49.082;8.200;2022-09-04T00:20:37;100276.47;;;15.78;90.88
7200;BME280;3641;49.082;8.200;2022-09-04T00:23:12;100285.91;;;15.89;89.17
7200;BME280;3641;49.082;8.200;2022-09-04T00:25:48;100287.50;;;16.03;88.79
7200;BME280;3641;49.082;8.200;2022-09-04T00:28:29;100286.41;;;15.79;89.67
7200;BME280;3641;49.082;8.200;2022-09-04T00:31:03;100287.19;;;16.18;86.08
7200;BME280;3641;49.082;8.200;2022-09-04T00:33:37;100287.91;;;16.07;88.31
7200;BME280;3641;49.082;8.200;2022-09-04T00:36:06;100298.03;;;15.74;90.36
7200;BME280;3641;49.082;8.200;2022-09-04T00:38:39;100293.09;;;15.51;91.79
7200;BME280;3641;49.082;8.200;2022-09-04T00:41:15;100293.94;;;15.90;87.04
7200;BME280;3641;49.082;8.200;2022-09-04T00:44:15;100304.19;;;15.70;90.08
7200;BME280;3641;49.082;8.200;2022-09-04T00:47:07;100293.38;;;15.82;88.46
7200;BME280;3641;49.082;8.200;2022-09-04T00:49:50;100304.84;;;15.65;89.90
7200;BME280;3641;49.082;8.200;2022-09-04T00:52:31;100297.63;;;15.71;88.36
7200;BME280;3641;49.082;8.200;2022-09-04T00:55:19;100301.91;;;16.05;86.00
7200;BME280;3641;49.082;8.200;2022-09-04T00:58:16;100310.88;;;16.19;85.11
7200;BME280;3641;49.082;8.200;2022-09-04T01:00:48;100306.75;;;16.10;86.57
7200;BME280;3641;49.082;8.200;2022-09-04T01:03:35;100302.69;;;16.12;85.31
7200;BME280;3641;49.082;8.200;2022-09-04T01:06:20;100307.53;;;16.17;84.32
7200;BME280;3641;49.082;8.200;2022-09-04T01:09:16;100310.66;;;16.21;83.89
7200;BME280;3641;49.082;8.200;2022-09-04T01:12:00;100319.56;;;16.23;83.52
7200;BME280;3641;49.082;8.200;2022-09-04T01:14:37;100318.00;;;16.02;84.37
7200;BME280;3641;49.082;8.200;2022-09-04T01:17:13;100320.69;;;16.15;83.86
7200;BME280;3641;49.082;8.200;2022-09-04T01:19:51;100335.38;;;15.57;88.14
7200;BME280;3641;49.082;8.200;2022-09-04T01:22:32;100324.66;;;15.87;85.29
7200;BME280;3641;49.082;8.200;2022-09-04T01:25:12;100325.78;;;15.79;85.86
7200;BME280;3641;49.082;8.200;2022-09-04T01:27:53;100328.41;;;16.00;84.30
7200;BME280;3641;49.082;8.200;2022-09-04T01:30:21;100333.91;;;16.00;85.98
7200;BME280;3641;49.082;8.200;2022-09-04T01:32:57;100336.81;;;15.79;86.54
7200;BME280;3641;49.082;8.200;2022-09-04T01:35:31;100341.59;;;15.91;84.71
7200;BME280;3641;49.082;8.200;2022-09-04T01:38:05;100329.69;;;15.97;84.11
7200;BME280;3641;49.082;8.200;2022-09-04T01:40:42;100343.63;;;15.57;87.02
7200;BME280;3641;49.082;8.200;2022-09-04T01:43:12;100342.19;;;15.54;86.92
7200;BME280;3641;49.082;8.200;2022-09-04T01:45:54;100334.84;;;15.87;84.41
7200;BME280;3641;49.082;8.200;2022-09-04T01:48:28;100344.34;;;15.91;84.72
7200;BME280;3641;49.082;8.200;2022-09-04T01:51:05;100338.59;;;15.47;86.76
7200;BME280;3641;49.082;8.200;2022-09-04T01:53:41;100341.34;;;15.47;86.74
7200;BME280;3641;49.082;8.200;2022-09-04T01:56:15;100334.25;;;15.78;84.15
7200;BME280;3641;49.082;8.200;2022-09-04T01:58:53;100337.53;;;15.93;83.39
7200;BME280;3641;49.082;8.200;2022-09-04T02:01:29;100342.22;;;15.93;83.24
7200;BME280;3641;49.082;8.200;2022-09-04T02:04:05;100342.38;;;15.98;82.75
7200;BME280;3641;49.082;8.200;2022-09-04T02:06:40;100350.41;;;15.61;85.51
7200;BME280;3641;49.082;8.200;2022-09-04T02:09:20;100339.31;;;15.81;83.20
7200;BME280;3641;49.082;8.200;2022-09-04T02:12:01;100352.41;;;15.86;83.05
7200;BME280;3641;49.082;8.200;2022-09-04T02:14:40;100339.28;;;15.88;82.12
7200;BME280;3641;49.082;8.200;2022-09-04T02:17:10;100344.56;;;15.89;82.71
7200;BME280;3641;49.082;8.200;2022-09-04T02:20:00;100346.69;;;15.87;82.74
7200;BME280;3641;49.082;8.200;2022-09-04T02:22:37;100345.84;;;15.28;86.11
7200;BME280;3641;49.082;8.200;2022-09-04T02:25:15;100350.63;;;14.87;89.05
7200;BME280;3641;49.082;8.200;2022-09-04T02:27:51;100348.09;;;14.66;90.83
7200;BME280;3641;49.082;8.200;2022-09-04T02:30:21;100351.28;;;14.76;90.05
7200;BME280;3641;49.082;8.200;2022-09-04T02:32:54;100362.03;;;14.78;89.84
7200;BME280;3641;49.082;8.200;2022-09-04T02:35:27;100351.03;;;14.44;92.12
7200;BME280;3641;49.082;8.200;2022-09-04T02:38:06;100359.47;;;14.49;92.12
7200;BME280;3641;49.082;8.200;2022-09-04T02:40:41;100364.56;;;14.52;91.85
7200;BME280;3641;49.082;8.200;2022-09-04T02:43:25;100358.25;;;14.65;91.04
7200;BME280;3641;49.082;8.200;2022-09-04T02:46:01;100362.84;;;14.51;90.79
7200;BME280;3641;49.082;8.200;2022-09-04T02:48:36;100362.47;;;14.75;88.43
7200;BME280;3641;49.082;8.200;2022-09-04T02:51:19;100367.94;;;14.88;88.04
7200;BME280;3641;49.082;8.200;2022-09-04T02:53:55;100369.59;;;14.29;91.52
7200;BME280;3641;49.082;8.200;2022-09-04T02:56:33;100366.25;;;14.80;87.92
7200;BME280;3641;49.082;8.200;2022-09-04T02:59:27;100362.41;;;15.15;85.41
7200;BME280;3641;49.082;8.200;2022-09-04T03:01:59;100362.25;;;14.63;88.79
7200;BME280;3641;49.082;8.200;2022-09-04T03:04:30;100368.56;;;15.03;87.11
7200;BME280;3641;49.082;8.200;2022-09-04T03:07:03;100360.13;;;14.85;87.15
7200;BME280;3641;49.082;8.200;2022-09-04T03:09:36;100367.31;;;14.79;88.04
7200;BME280;3641;49.082;8.200;2022-09-04T03:12:17;100367.09;;;14.74;88.77
7200;BME280;3641;49.082;8.200;2022-09-04T03:14:53;100369.22;;;14.65;89.03
7200;BME280;3641;49.082;8.200;2022-09-04T03:17:27;100371.75;;;15.00;86.17
7200;BME280;3641;49.082;8.200;2022-09-04T03:20:02;100369.59;;;15.16;85.72
7200;BME280;3641;49.082;8.200;2022-09-04T03:22:36;100371.09;;;14.58;89.07
7200;BME280;3641;49.082;8.200;2022-09-04T03:25:24;100374.69;;;14.99;86.69
7200;BME280;3641;49.082;8.200;2022-09-04T03:27:53;100367.44;;;15.24;83.90
7200;BME280;3641;49.082;8.200;2022-09-04T03:30:20;100374.06;;;14.90;86.63
7200;BME280;3641;49.082;8.200;2022-09-04T03:32:53;100369.16;;;15.19;84.48
7200;BME280;3641;49.082;8.200;2022-09-04T03:35:32;100374.25;;;15.08;85.34
7200;BME280;3641;49.082;8.200;2022-09-04T03:38:10;100376.78;;;15.10;85.52
7200;BME280;3641;49.082;8.200;2022-09-04T03:40:41;100377.63;;;15.11;85.07
7200;BME280;3641;49.082;8.200;2022-09-04T03:43:28;100377.19;;;15.14;85.32
7200;BME280;3641;49.082;8.200;2022-09-04T03:46:07;100366.69;;;14.70;87.32
7200;BME280;3641;49.082;8.200;2022-09-04T03:48:46;100375.09;;;14.42;89.11
7200;BME280;3641;49.082;8.200;2022-09-04T03:51:20;100381.94;;;14.66;87.85
7200;BME280;3641;49.082;8.200;2022-09-04T03:53:57;100381.72;;;14.68;87.49
7200;BME280;3641;49.082;8.200;2022-09-04T03:56:42;100382.13;;;14.78;87.64
7200;BME280;3641;49.082;8.200;2022-09-04T03:59:23;100380.38;;;14.44;89.54
7200;BME280;3641;49.082;8.200;2022-09-04T04:02:00;100380.19;;;14.79;85.72
7200;BME280;3641;49.082;8.200;2022-09-04T04:04:57;100388.88;;;14.89;86.36
7200;BME280;3641;49.082;8.200;2022-09-04T04:07:37;100393.09;;;14.85;85.56
7200;BME280;3641;49.082;8.200;2022-09-04T04:10:24;100402.38;;;15.04;84.17
7200;BME280;3641;49.082;8.200;2022-09-04T04:13:28;100399.00;;;15.08;84.25
7200;BME280;3641;49.082;8.200;2022-09-04T04:16:11;100401.09;;;15.13;84.46
7200;BME280;3641;49.082;8.200;2022-09-04T04:18:50;100404.50;;;15.08;83.43
7200;BME280;3641;49.082;8.200;2022-09-04T04:21:32;100409.16;;;14.95;84.40
7200;BME280;3641;49.082;8.200;2022-09-04T04:24:18;100408.31;;;14.74;86.08
7200;BME280;3641;49.082;8.200;2022-09-04T04:26:57;100412.78;;;14.62;87.21
7200;BME280;3641;49.082;8.200;2022-09-04T04:29:54;100418.81;;;14.24;90.66
7200;BME280;3641;49.082;8.200;2022-09-04T04:32:47;100425.53;;;14.14;90.94
7200;BME280;3641;49.082;8.200;2022-09-04T04:35:27;100420.53;;;14.45;88.12
7200;BME280;3641;49.082;8.200;2022-09-04T04:38:11;100437.09;;;13.96;92.23
7200;BME280;3641;49.082;8.200;2022-09-04T04:40:56;100429.38;;;13.72;92.52
7200;BME280;3641;49.082;8.200;2022-09-04T04:43:30;100436.13;;;14.24;88.54
7200;BME280;3641;49.082;8.200;2022-09-04T04:46:04;100434.97;;;14.60;85.35
7200;BME280;3641;49.082;8.200;2022-09-04T04:51:54;100437.00;;;14.51;87.06
7200;BME280;3641;49.082;8.200;2022-09-04T04:57:21;100445.66;;;14.42;87.14
7200;BME280;3641;49.082;8.200;2022-09-04T04:59:57;100452.00;;;14.42;87.72
7200;BME280;3641;49.082;8.200;2022-09-04T05:02:35;100451.63;;;13.90;90.63
7200;BME280;3641;49.082;8.200;2022-09-04T05:05:09;100457.56;;;14.01;90.30
7200;BME280;3641;49.082;8.200;2022-09-04T05:07:42;100455.75;;;14.14;89.58
7200;BME280;3641;49.082;8.200;2022-09-04T05:10:19;100450.31;;;14.41;86.53
7200;BME280;3641;49.082;8.200;2022-09-04T05:12:54;100466.81;;;13.86;90.79
7200;BME280;3641;49.082;8.200;2022-09-04T05:15:27;100463.03;;;13.87;91.14
7200;BME280;3641;49.082;8.200;2022-09-04T05:18:00;100470.81;;;13.77;92.43
7200;BME280;3641;49.082;8.200;2022-09-04T05:20:38;100470.94;;;13.69;92.62
7200;BME280;3641;49.082;8.200;2022-09-04T05:23:16;100473.72;;;14.17;88.21
7200;BME280;3641;49.082;8.200;2022-09-04T05:25:53;100474.38;;;14.32;88.17
7200;BME280;3641;49.082;8.200;2022-09-04T05:28:30;100483.78;;;14.03;89.90
7200;BME280;3641;49.082;8.200;2022-09-04T05:31:08;100490.63;;;14.27;87.90
7200;BME280;3641;49.082;8.200;2022-09-04T05:33:44;100487.97;;;14.54;87.36
7200;BME280;3641;49.082;8.200;2022-09-04T05:36:18;100502.94;;;14.45;87.70
7200;BME280;3641;49.082;8.200;2022-09-04T05:38:59;100496.88;;;14.63;87.83
7200;BME280;3641;49.082;8.200;2022-09-04T05:41:53;100505.38;;;14.75;86.53
7200;BME280;3641;49.082;8.200;2022-09-04T05:44:38;100522.75;;;14.33;90.23
7200;BME280;3641;49.082;8.200;2022-09-04T05:47:23;100516.69;;;14.51;87.93
7200;BME280;3641;49.082;8.200;2022-09-04T05:52:55;100521.84;;;14.88;84.78
7200;BME280;3641;49.082;8.200;2022-09-04T05:55:42;100532.44;;;14.98;84.79
7200;BME280;3641;49.082;8.200;2022-09-04T05:58:44;100532.88;;;15.01;84.23
7200;BME280;3641;49.082;8.200;2022-09-04T06:01:24;100535.19;;;15.04;84.86
7200;BME280;3641;49.082;8.200;2022-09-04T06:04:07;100538.38;;;15.01;86.21
7200;BME280;3641;49.082;8.200;2022-09-04T06:06:45;100530.97;;;15.08;84.97
7200;BME280;3641;49.082;8.200;2022-09-04T06:09:33;100540.72;;;15.18;85.66
7200;BME280;3641;49.082;8.200;2022-09-04T06:12:22;100547.00;;;14.85;91.23
7200;BME280;3641;49.082;8.200;2022-09-04T06:15:03;100535.34;;;14.63;92.75
7200;BME280;3641;49.082;8.200;2022-09-04T06:17:54;100541.34;;;15.06;88.70
7200;BME280;3641;49.082;8.200;2022-09-04T06:26:39;100552.75;;;15.03;90.21
7200;BME280;3641;49.082;8.200;2022-09-04T06:29:32;100560.13;;;14.96;93.23
7200;BME280;3641;49.082;8.200;2022-09-04T06:35:27;100568.38;;;14.89;95.08
7200;BME280;3641;49.082;8.200;2022-09-04T06:38:06;100576.88;;;15.21;92.10
7200;BME280;3641;49.082;8.200;2022-09-04T06:40:47;100584.25;;;15.01;95.83
7200;BME280;3641;49.082;8.200;2022-09-04T06:43:26;100578.78;;;15.28;90.94
7200;BME280;3641;49.082;8.200;2022-09-04T06:46:08;100579.00;;;15.13;96.69
7200;BME280;3641;49.082;8.200;2022-09-04T06:48:49;100588.28;;;15.18;94.48
7200;BME280;3641;49.082;8.200;2022-09-04T06:51:32;100583.25;;;15.35;95.34
7200;BME280;3641;49.082;8.200;2022-09-04T06:54:11;100583.88;;;15.44;91.81
7200;BME280;3641;49.082;8.200;2022-09-04T06:56:50;100583.44;;;15.54;94.39
7200;BME280;3641;49.082;8.200;2022-09-04T06:59:40;100576.66;;;15.23;98.80
7200;BME280;3641;49.082;8.200;2022-09-04T07:02:19;100585.16;;;15.41;95.58
7200;BME280;3641;49.082;8.200;2022-09-04T07:05:00;100577.31;;;15.72;90.86
7200;BME280;3641;49.082;8.200;2022-09-04T07:07:37;100584.91;;;15.70;94.35
7200;BME280;3641;49.082;8.200;2022-09-04T07:10:09;100585.56;;;15.85;91.57
7200;BME280;3641;49.082;8.200;2022-09-04T07:15:49;100589.38;;;15.84;100.00
7200;BME280;3641;49.082;8.200;2022-09-04T07:18:41;100592.97;;;15.91;99.35
7200;BME280;3641;49.082;8.200;2022-09-04T07:21:18;100598.00;;;16.08;100.00
7200;BME280;3641;49.082;8.200;2022-09-04T07:23:51;100602.19;;;16.24;98.66
7200;BME280;3641;49.082;8.200;2022-09-04T07:26:22;100602.00;;;16.19;99.78
7200;BME280;3641;49.082;8.200;2022-09-04T07:29:01;100607.25;;;16.40;94.19
7200;BME280;3641;49.082;8.200;2022-09-04T07:31:37;100612.69;;;16.53;95.28
7200;BME280;3641;49.082;8.200;2022-09-04T07:34:15;100616.03;;;16.62;97.07
7200;BME280;3641;49.082;8.200;2022-09-04T07:36:48;100611.97;;;16.71;96.21
7200;BME280;3641;49.082;8.200;2022-09-04T07:39:23;100615.31;;;16.87;95.66
7200;BME280;3641;49.082;8.200;2022-09-04T07:41:57;100615.91;;;16.96;92.07
7200;BME280;3641;49.082;8.200;2022-09-04T07:44:31;100617.16;;;17.00;94.11
7200;BME280;3641;49.082;8.200;2022-09-04T07:47:04;100621.19;;;16.97;97.29
7200;BME280;3641;49.082;8.200;2022-09-04T07:49:45;100616.28;;;17.06;96.10
7200;BME280;3641;49.082;8.200;2022-09-04T07:52:25;100623.03;;;17.10;95.49
7200;BME280;3641;49.082;8.200;2022-09-04T07:55:15;100625.56;;;17.18;96.79
7200;BME280;3641;49.082;8.200;2022-09-04T08:00:52;100612.03;;;17.35;95.74
7200;BME280;3641;49.082;8.200;2022-09-04T08:03:31;100625.97;;;17.47;92.55
7200;BME280;3641;49.082;8.200;2022-09-04T08:06:10;100634.16;;;17.60;93.97
7200;BME280;3641;49.082;8.200;2022-09-04T08:14:54;100652.00;;;17.83;90.10
7200;BME280;3641;49.082;8.200;2022-09-04T08:18:04;100650.47;;;17.94;89.27
7200;BME280;3641;49.082;8.200;2022-09-04T08:20:39;100649.56;;;18.00;88.24
7200;BME280;3641;49.082;8.200;2022-09-04T08:23:21;100650.16;;;18.02;88.13
7200;BME280;3641;49.082;8.200;2022-09-04T08:26:00;100650.16;;;18.02;89.38
7200;BME280;3641;49.082;8.200;2022-09-04T08:28:52;100659.25;;;18.09;89.61
7200;BME280;3641;49.082;8.200;2022-09-04T08:31:28;100657.00;;;18.18;88.37
7200;BME280;3641;49.082;8.200;2022-09-04T08:34:22;100661.41;;;18.26;87.28
7200;BME280;3641;49.082;8.200;2022-09-04T08:37:01;100667.41;;;18.41;85.32
7200;BME280;3641;49.082;8.200;2022-09-04T08:39:39;100666.94;;;18.44;85.63
7200;BME280;3641;49.082;8.200;2022-09-04T08:49:06;100678.06;;;18.75;86.28
7200;BME280;3641;49.082;8.200;2022-09-04T08:54:47;100682.25;;;18.84;84.91
7200;BME280;3641;49.082;8.200;2022-09-04T08:57:41;100680.94;;;18.86;82.90
7200;BME280;3641;49.082;8.200;2022-09-04T09:00:14;100682.94;;;18.98;82.67
7200;BME280;3641;49.082;8.200;2022-09-04T09:03:30;100680.66;;;19.06;82.84
7200;BME280;3641;49.082;8.200;2022-09-04T09:06:29;100683.13;;;19.15;81.37
7200;BME280;3641;49.082;8.200;2022-09-04T09:15:21;100675.78;;;19.51;80.65
7200;BME280;3641;49.082;8.200;2022-09-04T09:18:02;100676.53;;;19.58;79.93
7200;BME280;3641;49.082;8.200;2022-09-04T09:20:41;100674.97;;;19.62;78.56
7200;BME280;3641;49.082;8.200;2022-09-04T09:23:17;100680.97;;;19.59;79.87
7200;BME280;3641;49.082;8.200;2022-09-04T09:25:53;100674.97;;;19.62;78.75
7200;BME280;3641;49.082;8.200;2022-09-04T09:28:55;100679.00;;;19.78;78.01
7200;BME280;3641;49.082;8.200;2022-09-04T09:31:56;100678.53;;;19.81;77.23
7200;BME280;3641;49.082;8.200;2022-09-04T09:34:53;100667.72;;;19.91;76.31
7200;BME280;3641;49.082;8.200;2022-09-04T09:37:55;100671.69;;;19.95;76.82
7200;BME280;3641;49.082;8.200;2022-09-04T09:43:52;100656.38;;;20.17;75.72
7200;BME280;3641;49.082;8.200;2022-09-04T09:47:12;100653.25;;;20.25;77.14
7200;BME280;3641;49.082;8.200;2022-09-04T09:50:01;100652.78;;;20.28;77.63
7200;BME280;3641;49.082;8.200;2022-09-04T09:56:24;100656.34;;;20.64;71.42
7200;BME280;3641;49.082;8.200;2022-09-04T09:59:25;100650.66;;;20.59;73.66
7200;BME280;3641;49.082;8.200;2022-09-04T10:02:16;100652.09;;;20.73;71.37
7200;BME280;3641;49.082;8.200;2022-09-04T10:05:21;100643.25;;;20.88;69.59
7200;BME280;3641;49.082;8.200;2022-09-04T10:08:12;100643.09;;;20.95;71.48
7200;BME280;3641;49.082;8.200;2022-09-04T10:11:16;100643.25;;;21.17;70.90
7200;BME280;3641;49.082;8.200;2022-09-04T10:14:13;100640.19;;;21.30;71.48
7200;BME280;3641;49.082;8.200;2022-09-04T10:17:01;100650.88;;;21.38;69.86
7200;BME280;3641;49.082;8.200;2022-09-04T10:19:48;100644.94;;;21.81;68.12
7200;BME280;3641;49.082;8.200;2022-09-04T10:22:38;100638.19;;;21.93;66.86
7200;BME280;3641;49.082;8.200;2022-09-04T10:25:31;100638.25;;;22.16;68.40
7200;BME280;3641;49.082;8.200;2022-09-04T10:28:34;100640.28;;;22.20;67.78
7200;BME280;3641;49.082;8.200;2022-09-04T10:31:26;100633.38;;;22.62;65.44
7200;BME280;3641;49.082;8.200;2022-09-04T10:34:07;100635.63;;;22.65;62.62
7200;BME280;3641;49.082;8.200;2022-09-04T10:36:46;100628.97;;;22.66;67.46
7200;BME280;3641;49.082;8.200;2022-09-04T10:39:22;100633.88;;;22.81;64.52
7200;BME280;3641;49.082;8.200;2022-09-04T10:42:29;100632.53;;;23.33;63.36
7200;BME280;3641;49.082;8.200;2022-09-04T10:45:13;100634.41;;;23.27;61.69
7200;BME280;3641;49.082;8.200;2022-09-04T10:48:00;100635.19;;;23.50;61.58
7200;BME280;3641;49.082;8.200;2022-09-04T10:50:41;100630.81;;;23.27;62.96
7200;BME280;3641;49.082;8.200;2022-09-04T10:53:25;100641.47;;;23.67;58.27
7200;BME280;3641;49.082;8.200;2022-09-04T10:56:07;100635.09;;;23.72;54.51
7200;BME280;3641;49.082;8.200;2022-09-04T11:01:46;100637.28;;;23.10;62.56
7200;BME280;3641;49.082;8.200;2022-09-04T11:07:32;100638.81;;;23.23;62.95
7200;BME280;3641;49.082;8.200;2022-09-04T11:10:20;100629.53;;;22.90;67.78
7200;BME280;3641;49.082;8.200;2022-09-04T11:13:25;100634.53;;;22.66;62.14
7200;BME280;3641;49.082;8.200;2022-09-04T11:19:16;100624.03;;;22.51;68.67
7200;BME280;3641;49.082;8.200;2022-09-04T11:25:41;100623.75;;;22.30;66.23
7200;BME280;3641;49.082;8.200;2022-09-04T11:28:52;100612.78;;;22.24;67.40
7200;BME280;3641;49.082;8.200;2022-09-04T11:31:33;100614.25;;;22.09;68.74
7200;BME280;3641;49.082;8.200;2022-09-04T11:34:23;100609.69;;;22.20;64.74
7200;BME280;3641;49.082;8.200;2022-09-04T11:40:06;100609.69;;;22.59;62.50
7200;BME280;3641;49.082;8.200;2022-09-04T11:42:55;100612.97;;;22.78;58.95
7200;BME280;3641;49.082;8.200;2022-09-04T11:45:43;100613.53;;;23.02;55.00
7200;BME280;3641;49.082;8.200;2022-09-04T11:48:37;100614.88;;;23.22;55.04
7200;BME280;3641;49.082;8.200;2022-09-04T11:51:20;100604.88;;;23.26;55.05
7200;BME280;3641;49.082;8.200;2022-09-04T11:57:28;100610.84;;;23.40;56.06
7200;BME280;3641;49.082;8.200;2022-09-04T12:00:15;100613.59;;;23.35;53.68
7200;BME280;3641;49.082;8.200;2022-09-04T12:06:10;100623.38;;;23.70;52.63
7200;BME280;3641;49.082;8.200;2022-09-04T12:09:09;100619.09;;;23.57;56.19
7200;BME280;3641;49.082;8.200;2022-09-04T12:12:03;100616.31;;;23.57;52.80
7200;BME280;3641;49.082;8.200;2022-09-04T12:21:00;100612.16;;;23.92;51.04
7200;BME280;3641;49.082;8.200;2022-09-04T12:23:56;100618.59;;;23.98;54.57
7200;BME280;3641;49.082;8.200;2022-09-04T12:26:59;100608.63;;;24.12;50.19
7200;BME280;3641;49.082;8.200;2022-09-04T12:33:02;100613.81;;;24.36;50.45
7200;BME280;3641;49.082;8.200;2022-09-04T12:35:47;100620.16;;;24.26;50.84
7200;BME280;3641;49.082;8.200;2022-09-04T12:38:26;100617.25;;;24.05;52.13
7200;BME280;3641;49.082;8.200;2022-09-04T12:41:04;100610.03;;;24.09;48.02
7200;BME280;3641;49.082;8.200;2022-09-04T12:43:41;100616.06;;;23.96;54.52
7200;BME280;3641;49.082;8.200;2022-09-04T12:46:24;100625.41;;;23.80;54.74
7200;BME280;3641;49.082;8.200;2022-09-04T12:49:17;100618.06;;;23.68;54.77
7200;BME280;3641;49.082;8.200;2022-09-04T12:51:54;100611.56;;;23.57;53.73
7200;BME280;3641;49.082;8.200;2022-09-04T12:54:30;100617.53;;;23.71;55.42
7200;BME280;3641;49.082;8.200;2022-09-04T12:57:12;100619.19;;;23.72;56.35
7200;BME280;3641;49.082;8.200;2022-09-04T12:59:56;100609.72;;;23.68;59.10
7200;BME280;3641;49.082;8.200;2022-09-04T13:02:36;100613.28;;;23.64;53.21
7200;BME280;3641;49.082;8.200;2022-09-04T13:05:28;100615.88;;;23.75;56.01
7200;BME280;3641;49.082;8.200;2022-09-04T13:08:04;100616.28;;;23.84;49.91
7200;BME280;3641;49.082;8.200;2022-09-04T13:10:39;100619.44;;;23.98;56.10
7200;BME280;3641;49.082;8.200;2022-09-04T13:13:17;100611.94;;;24.04;52.83
7200;BME280;3641;49.082;8.200;2022-09-04T13:15:52;100616.34;;;23.94;54.51
7200;BME280;3641;49.082;8.200;2022-09-04T13:18:31;100618.69;;;24.08;58.25
7200;BME280;3641;49.082;8.200;2022-09-04T13:21:12;100608.97;;;24.16;51.81
7200;BME280;3641;49.082;8.200;2022-09-04T13:23:57;100613.78;;;24.30;51.72
7200;BME280;3641;49.082;8.200;2022-09-04T13:26:38;100616.06;;;24.39;53.20
7200;BME280;3641;49.082;8.200;2022-09-04T13:29:15;100605.56;;;24.56;51.35
7200;BME280;3641;49.082;8.200;2022-09-04T13:32:00;100616.19;;;24.64;50.33
7200;BME280;3641;49.082;8.200;2022-09-04T13:34:43;100618.44;;;24.68;49.17
7200;BME280;3641;49.082;8.200;2022-09-04T13:37:22;100621.53;;;24.71;48.28
7200;BME280;3641;49.082;8.200;2022-09-04T13:40:03;100617.06;;;24.70;49.66
7200;BME280;3641;49.082;8.200;2022-09-04T13:43:07;100608.78;;;24.38;53.12
7200;BME280;3641;49.082;8.200;2022-09-04T13:45:43;100607.97;;;24.42;50.17
7200;BME280;3641;49.082;8.200;2022-09-04T13:48:15;100611.00;;;24.36;51.09
7200;BME280;3641;49.082;8.200;2022-09-04T13:50:49;100602.25;;;24.17;48.10
7200;BME280;3641;49.082;8.200;2022-09-04T13:53:24;100604.25;;;24.26;51.67
7200;BME280;3641;49.082;8.200;2022-09-04T13:55:52;100602.66;;;24.41;53.17
7200;BME280;3641;49.082;8.200;2022-09-04T13:58:26;100604.06;;;24.43;49.87
7200;BME280;3641;49.082;8.200;2022-09-04T14:00:57;100597.75;;;24.63;49.41
7200;BME280;3641;49.082;8.200;2022-09-04T14:03:31;100600.81;;;24.57;51.57
7200;BME280;3641;49.082;8.200;2022-09-04T14:06:01;100597.47;;;24.60;52.77
7200;BME280;3641;49.082;8.200;2022-09-04T14:08:31;100600.06;;;24.82;50.09
7200;BME280;3641;49.082;8.200;2022-09-04T14:11:11;100601.44;;;24.79;49.52
7200;BME280;3641;49.082;8.200;2022-09-04T14:14:00;100602.56;;;24.73;50.08
7200;BME280;3641;49.082;8.200;2022-09-04T14:16:36;100601.16;;;24.76;48.33
7200;BME280;3641;49.082;8.200;2022-09-04T14:19:17;100602.03;;;24.87;50.44
7200;BME280;3641;49.082;8.200;2022-09-04T14:22:01;100595.31;;;24.82;49.87
7200;BME280;3641;49.082;8.200;2022-09-04T14:24:35;100602.59;;;24.89;53.27
7200;BME280;3641;49.082;8.200;2022-09-04T14:27:11;100601.00;;;25.13;45.84
7200;BME280;3641;49.082;8.200;2022-09-04T14:30:04;100595.63;;;25.01;53.79
7200;BME280;3641;49.082;8.200;2022-09-04T14:32:39;100595.63;;;24.96;46.74
7200;BME280;3641;49.082;8.200;2022-09-04T14:35:15;100599.56;;;25.06;47.91
7200;BME280;3641;49.082;8.200;2022-09-04T14:38:00;100608.78;;;25.01;52.22
7200;BME280;3641;49.082;8.200;2022-09-04T14:40:34;100603.19;;;25.01;55.05
7200;BME280;3641;49.082;8.200;2022-09-04T14:43:09;100604.56;;;24.88;46.88
7200;BME280;3641;49.082;8.200;2022-09-04T14:45:59;100605.13;;;24.95;48.50
7200;BME280;3641;49.082;8.200;2022-09-04T14:48:29;100603.47;;;24.94;52.20
7200;BME280;3641;49.082;8.200;2022-09-04T14:51:10;100595.06;;;24.89;50.30
7200;BME280;3641;49.082;8.200;2022-09-04T14:53:45;100596.72;;;24.90;49.05
7200;BME280;3641;49.082;8.200;2022-09-04T14:56:28;100598.97;;;24.88;51.03
7200;BME280;3641;49.082;8.200;2022-09-04T14:59:04;100596.16;;;24.83;44.29
7200;BME280;3641;49.082;8.200;2022-09-04T15:01:34;100590.31;;;24.84;43.16
7200;BME280;3641;49.082;8.200;2022-09-04T15:04:06;100593.94;;;24.80;44.69
7200;BME280;3641;49.082;8.200;2022-09-04T15:06:39;100597.88;;;24.89;42.64
7200;BME280;3641;49.082;8.200;2022-09-04T15:09:18;100598.09;;;24.82;46.69
7200;BME280;3641;49.082;8.200;2022-09-04T15:11:50;100598.63;;;24.74;42.82
7200;BME280;3641;49.082;8.200;2022-09-04T15:14:23;100590.81;;;24.71;45.33
7200;BME280;3641;49.082;8.200;2022-09-04T15:16:57;100591.06;;;24.64;46.07
7200;BME280;3641;49.082;8.200;2022-09-04T15:19:32;100593.84;;;24.59;45.18
7200;BME280;3641;49.082;8.200;2022-09-04T15:22:08;100590.41;;;24.47;54.45
7200;BME280;3641;49.082;8.200;2022-09-04T15:24:49;100596.53;;;24.44;51.72
7200;BME280;3641;49.082;8.200;2022-09-04T15:27:21;100591.25;;;24.47;42.25
7200;BME280;3641;49.082;8.200;2022-09-04T15:30:02;100584.84;;;24.47;45.67
7200;BME280;3641;49.082;8.200;2022-09-04T15:32:32;100590.66;;;24.40;49.31
7200;BME280;3641;49.082;8.200;2022-09-04T15:35:13;100588.97;;;24.34;49.33
7200;BME280;3641;49.082;8.200;2022-09-04T15:37:42;100592.56;;;24.35;48.77
7200;BME280;3641;49.082;8.200;2022-09-04T15:40:19;100578.34;;;24.36;49.68
7200;BME280;3641;49.082;8.200;2022-09-04T15:42:56;100593.47;;;24.40;46.42
7200;BME280;3641;49.082;8.200;2022-09-04T15:45:31;100590.63;;;24.30;54.23
7200;BME280;3641;49.082;8.200;2022-09-04T15:48:19;100589.97;;;24.13;51.22